Time;durP1;ratioP1;P1;durP2;ratioP2;P2;SDS_P1;SDS_P2;PMS_P1;PMS_P2;Temp;Humidity;BMP_temperature;BMP_pressure;BME280_temperature;BME280_humidity;BME280_pressure;Samples;Min_cycle;Max_cycle;Signal;HPM_P1;HPM_P2
2023/01/02 00:01:16;;;;;;;12.43;4.05;;;9.60;99.90;;;;;;5039735;28;20098;-63
2023/01/02 00:03:42;;;;;;;11.93;3.40;;;9.60;99.90;;;;;;5045417;28;20475;-63
2023/01/02 00:06:08;;;;;;;15.07;3.30;;;9.60;99.90;;;;;;5045754;28;20048;-63
2023/01/02 00:08:34;;;;;;;17.95;4.20;;;9.60;99.90;;;;;;5045781;28;20045;-63
2023/01/02 00:11:00;;;;;;;18.50;4.00;;;9.60;99.90;;;;;;5024311;28;20053;-63
2023/01/02 00:13:26;;;;;;;19.35;3.60;;;9.60;99.90;;;;;;5018647;28;20040;-63
2023/01/02 00:15:51;;;;;;;11.20;3.17;;;9.60;99.90;;;;;;5045320;28;20497;-63
2023/01/02 00:18:18;;;;;;;17.55;3.75;;;9.60;99.90;;;;;;5046293;28;20091;-63
2023/01/02 00:20:44;;;;;;;19.77;3.67;;;9.60;99.90;;;;;;5027216;28;20084;-63
2023/01/02 00:23:09;;;;;;;12.75;4.07;;;9.60;99.90;;;;;;5043876;28;20126;-63
2023/01/02 00:25:36;;;;;;;10.25;3.83;;;9.60;99.90;;;;;;5045220;28;20049;-63
2023/01/02 00:28:02;;;;;;;17.38;4.00;;;9.70;99.90;;;;;;5045507;28;20045;-63
2023/01/02 00:30:28;;;;;;;10.27;3.53;;;9.70;99.90;;;;;;5028204;28;20045;-63
2023/01/02 00:32:53;;;;;;;12.82;4.18;;;9.70;99.90;;;;;;5041980;28;20375;-63
2023/01/02 00:35:19;;;;;;;18.33;4.78;;;9.70;99.90;;;;;;5046163;28;20584;-63
2023/01/02 00:37:45;;;;;;;18.38;5.57;;;9.80;99.90;;;;;;5044556;28;20136;-63
2023/01/02 00:40:12;;;;;;;8.00;4.50;;;9.80;99.90;;;;;;5046119;28;20049;-63
2023/01/02 00:42:42;;;;;;;20.20;5.25;;;9.80;99.90;;;;;;5042109;28;20423;-63
2023/01/02 00:45:09;;;;;;;11.57;5.00;;;9.80;99.90;;;;;;5046436;28;20084;-63
2023/01/02 00:47:36;;;;;;;10.75;4.63;;;9.80;99.90;;;;;;5049994;28;20538;-63
2023/01/02 00:50:02;;;;;;;8.88;5.10;;;9.90;99.90;;;;;;5048836;28;20059;-63
2023/01/02 00:52:28;;;;;;;13.57;5.70;;;9.90;99.90;;;;;;5049735;28;20048;-62
2023/01/02 00:54:54;;;;;;;11.23;6.05;;;9.90;99.90;;;;;;5015192;28;20049;-62
2023/01/02 00:57:20;;;;;;;15.05;6.65;;;10.00;99.90;;;;;;5050467;28;20079;-63
2023/01/02 00:59:45;;;;;;;16.38;7.00;;;10.00;99.90;;;;;;5049749;28;20052;-63
2023/01/02 01:02:11;;;;;;;9.50;5.93;;;10.00;99.90;;;;;;5021070;28;20045;-63
2023/01/02 01:04:37;;;;;;;12.93;6.53;;;10.00;99.90;;;;;;5024370;28;20530;-63
2023/01/02 01:07:03;;;;;;;9.95;7.03;;;10.00;99.90;;;;;;5050590;28;20056;-63
2023/01/02 01:09:29;;;;;;;21.13;7.40;;;10.10;99.90;;;;;;5050022;28;20045;-63
2023/01/02 01:11:54;;;;;;;14.07;7.03;;;10.10;99.90;;;;;;5031579;28;20099;-63
2023/01/02 01:14:22;;;;;;;21.10;7.47;;;10.00;99.90;;;;;;5028786;28;20095;-63
2023/01/02 01:16:48;;;;;;;15.68;7.28;;;10.10;99.90;;;;;;5048063;28;20754;-63
2023/01/02 01:19:14;;;;;;;24.75;7.38;;;10.10;99.90;;;;;;5049481;28;20057;-63
2023/01/02 01:21:40;;;;;;;15.63;7.90;;;10.00;99.90;;;;;;5049150;28;20098;-63
2023/01/02 01:24:06;;;;;;;18.00;7.55;;;10.10;99.90;;;;;;5049112;28;20422;-63
2023/01/02 01:26:32;;;;;;;12.70;7.75;;;10.10;99.90;;;;;;5030476;28;20124;-63
2023/01/02 01:29:00;;;;;;;19.58;7.50;;;10.10;99.90;;;;;;5048837;28;20041;-63
2023/01/02 01:31:26;;;;;;;22.48;8.52;;;10.20;99.90;;;;;;5050972;28;20069;-63
2023/01/02 01:33:52;;;;;;;21.38;8.60;;;10.10;99.90;;;;;;5047954;28;20065;-63
2023/01/02 01:36:20;;;;;;;18.38;8.70;;;10.10;99.90;;;;;;5036283;28;20768;-63
2023/01/02 01:38:47;;;;;;;19.27;9.32;;;10.20;99.90;;;;;;5047895;28;20072;-63
2023/01/02 01:41:15;;;;;;;19.13;8.50;;;10.20;99.90;;;;;;5048637;28;20061;-63
2023/01/02 01:43:41;;;;;;;19.35;9.02;;;10.20;99.90;;;;;;5048591;28;20510;-63
2023/01/02 01:46:30;;;;;;;23.42;9.60;;;10.20;99.90;;;;;;5040480;28;20045;-64
2023/01/02 01:49:10;;;;;;;17.77;9.43;;;10.20;99.90;;;;;;5048477;28;20470;-63
2023/01/02 01:51:53;;;;;;;22.45;8.68;;;10.20;99.90;;;;;;5029972;28;20081;-63
2023/01/02 01:54:29;;;;;;;22.52;9.75;;;10.20;99.90;;;;;;5030850;28;20056;-64
2023/01/02 01:57:01;;;;;;;21.85;9.73;;;10.20;99.90;;;;;;5038069;28;20546;-63
2023/01/02 01:59:27;;;;;;;21.63;8.70;;;10.20;99.90;;;;;;5029820;28;20056;-63
2023/01/02 02:01:53;;;;;;;21.33;10.93;;;10.20;99.90;;;;;;5047881;28;20045;-64
2023/01/02 02:04:22;;;;;;;20.60;10.18;;;10.30;99.90;;;;;;5030004;28;20515;-63
2023/01/02 02:06:50;;;;;;;28.55;10.80;;;10.30;99.90;;;;;;5045547;28;20442;-63
2023/01/02 02:09:21;;;;;;;20.15;9.48;;;10.30;99.90;;;;;;5016997;28;20139;-64
2023/01/02 02:11:47;;;;;;;22.90;10.38;;;10.30;99.90;;;;;;5048721;28;20048;-63
2023/01/02 02:14:13;;;;;;;25.73;10.88;;;10.30;99.90;;;;;;5048813;28;20036;-63
2023/01/02 02:17:01;;;;;;;21.20;10.73;;;10.30;99.90;;;;;;5046525;28;20067;-64
2023/01/02 02:19:41;;;;;;;18.83;9.25;;;10.30;99.90;;;;;;5046022;28;20029;-63
2023/01/02 02:22:18;;;;;;;24.08;10.00;;;10.40;99.90;;;;;;5047661;28;20059;-64
2023/01/02 02:25:14;;;;;;;20.05;10.38;;;10.40;99.90;;;;;;5047452;28;20482;-63
2023/01/02 02:27:47;;;;;;;21.05;11.13;;;10.50;99.90;;;;;;5027089;28;20501;-63
2023/01/02 02:30:31;;;;;;;24.48;11.10;;;10.50;99.90;;;;;;5047083;28;20053;-64
2023/01/02 02:33:03;;;;;;;25.42;12.18;;;10.50;99.90;;;;;;5047272;28;20060;-64
2023/01/02 02:35:48;;;;;;;30.15;12.20;;;10.50;99.90;;;;;;5029896;28;20056;-64
2023/01/02 02:38:35;;;;;;;22.67;11.57;;;10.50;99.90;;;;;;5046834;28;20186;-63
2023/01/02 02:41:18;;;;;;;20.23;9.85;;;10.50;99.90;;;;;;5047947;28;20061;-64
2023/01/02 02:43:58;;;;;;;22.08;10.57;;;10.50;99.90;;;;;;5034664;28;20447;-81
2023/01/02 02:46:49;;;;;;;25.52;9.45;;;10.50;99.90;;;;;;5047652;28;20411;-64
2023/01/02 02:49:42;;;;;;;24.77;10.68;;;10.50;99.90;;;;;;5037577;28;20104;-65
2023/01/02 02:52:19;;;;;;;19.13;9.80;;;10.60;99.90;;;;;;5033947;28;20055;-64
2023/01/02 02:55:05;;;;;;;21.30;9.32;;;10.60;99.90;;;;;;5028857;28;20053;-64
2023/01/02 02:57:32;;;;;;;20.45;10.13;;;10.60;99.90;;;;;;5047978;28;20049;-67
2023/01/02 02:59:57;;;;;;;32.13;10.00;;;10.60;99.90;;;;;;5027549;28;20142;-63
2023/01/02 03:02:23;;;;;;;15.57;8.05;;;10.70;99.90;;;;;;5047153;28;20526;-64
2023/01/02 03:04:56;;;;;;;16.15;8.30;;;10.70;99.90;;;;;;5046249;28;20052;-64
2023/01/02 03:07:40;;;;;;;26.80;8.23;;;10.80;99.90;;;;;;5033796;28;20037;-63
2023/01/02 03:10:47;;;;;;;26.52;9.00;;;10.80;99.90;;;;;;5046531;28;20102;-81
2023/01/02 03:13:23;;;;;;;10.98;6.80;;;10.80;99.90;;;;;;4945643;28;20055;-65
2023/01/02 03:16:09;;;;;;;17.05;7.30;;;10.80;99.90;;;;;;4946553;28;20134;-72
2023/01/02 03:18:50;;;;;;;14.95;8.60;;;10.90;99.90;;;;;;5012668;28;20592;-64
2023/01/02 03:21:25;;;;;;;15.73;7.82;;;10.90;99.90;;;;;;5034483;28;20422;-64
2023/01/02 03:23:52;;;;;;;21.02;7.47;;;10.80;99.90;;;;;;5047019;28;20053;-64
2023/01/02 03:26:26;;;;;;;19.05;7.70;;;10.80;99.90;;;;;;5046142;28;20055;-64
2023/01/02 03:28:58;;;;;;;17.13;8.27;;;10.90;99.90;;;;;;5046617;28;20521;-64
2023/01/02 03:31:27;;;;;;;19.10;7.45;;;10.80;99.90;;;;;;5036513;28;20048;-64
2023/01/02 03:34:06;;;;;;;24.60;8.48;;;10.90;99.90;;;;;;5046163;28;20091;-75
2023/01/02 03:36:36;;;;;;;23.60;8.80;;;10.90;99.90;;;;;;5046844;28;20049;-64
2023/01/02 03:39:14;;;;;;;16.80;8.38;;;10.90;99.90;;;;;;5045832;28;20041;-64
2023/01/02 03:41:58;;;;;;;15.90;7.40;;;10.90;99.90;;;;;;5028261;28;20110;-64
2023/01/02 03:44:32;;;;;;;24.10;8.52;;;10.90;99.90;;;;;;5046454;28;20055;-78
2023/01/02 03:47:15;;;;;;;15.98;7.68;;;10.90;99.90;;;;;;5045741;28;20077;-64
2023/01/02 03:49:46;;;;;;;19.35;7.28;;;10.90;99.90;;;;;;5046969;28;20503;-64
2023/01/02 03:52:12;;;;;;;21.17;8.68;;;10.90;99.90;;;;;;5039548;28;20033;-65
2023/01/02 03:54:38;;;;;;;17.30;8.40;;;10.90;99.90;;;;;;5046699;28;20060;-64
2023/01/02 03:57:07;;;;;;;29.23;9.38;;;10.90;99.90;;;;;;5027364;28;20037;-63
2023/01/02 03:59:43;;;;;;;21.98;7.20;;;10.90;99.90;;;;;;5046177;28;20045;-75
2023/01/02 04:02:30;;;;;;;20.85;7.13;;;10.90;99.90;;;;;;5043190;28;20041;-64
2023/01/02 04:04:59;;;;;;;19.33;9.35;;;11.00;99.90;;;;;;5044849;28;20111;-64
2023/01/02 04:07:47;;;;;;;26.45;9.20;;;11.00;99.90;;;;;;5046536;28;20049;-64
2023/01/02 04:10:14;;;;;;;18.23;6.78;;;11.00;99.90;;;;;;5045032;28;20094;-65
2023/01/02 04:12:43;;;;;;;17.08;7.30;;;11.00;99.90;;;;;;5041395;28;20064;-65
2023/01/02 04:15:12;;;;;;;19.15;7.78;;;11.00;99.90;;;;;;5045725;28;20041;-64
2023/01/02 04:17:49;;;;;;;23.58;10.00;;;11.00;99.90;;;;;;5045343;28;20102;-64
2023/01/02 04:20:25;;;;;;;24.90;8.10;;;11.00;99.90;;;;;;5045776;28;20049;-64
2023/01/02 04:22:59;;;;;;;18.83;8.35;;;11.00;99.90;;;;;;5043200;28;20528;-64
2023/01/02 04:25:33;;;;;;;22.02;8.75;;;11.00;99.90;;;;;;5028351;28;20411;-64
2023/01/02 04:28:21;;;;;;;15.10;7.32;;;11.10;99.90;;;;;;5010957;28;20041;-78
2023/01/02 04:31:05;;;;;;;17.17;8.23;;;11.10;99.90;;;;;;5027495;28;20127;-82
2023/01/02 04:33:37;;;;;;;11.27;5.03;;;11.10;99.90;;;;;;5034098;28;20080;-63
2023/01/02 04:36:10;;;;;;;21.35;8.52;;;11.10;99.90;;;;;;5044835;28;20055;-73
2023/01/02 04:38:36;;;;;;;15.40;7.60;;;11.10;99.90;;;;;;5046032;28;20049;-64
2023/01/02 04:41:04;;;;;;;16.40;7.72;;;11.10;99.90;;;;;;5045356;28;20061;-65
2023/01/02 04:43:30;;;;;;;21.30;6.82;;;11.10;99.90;;;;;;5043391;28;20410;-64
2023/01/02 04:45:56;;;;;;;14.05;7.10;;;11.10;99.90;;;;;;5046692;28;20120;-65
2023/01/02 04:48:21;;;;;;;15.60;7.50;;;11.10;99.90;;;;;;5044434;28;20114;-64
2023/01/02 04:50:47;;;;;;;13.68;7.18;;;11.10;99.90;;;;;;5045993;28;20052;-63
2023/01/02 04:53:14;;;;;;;16.67;7.22;;;11.20;99.90;;;;;;5043338;28;20045;-64
2023/01/02 04:55:40;;;;;;;14.45;6.68;;;11.20;99.90;;;;;;5045670;28;20072;-64
2023/01/02 04:58:06;;;;;;;12.18;6.15;;;11.20;99.90;;;;;;5044831;28;20570;-64
2023/01/02 05:00:33;;;;;;;15.27;6.28;;;11.20;99.90;;;;;;5013423;28;20091;-77
2023/01/02 05:03:01;;;;;;;11.27;6.78;;;11.20;99.90;;;;;;5037972;28;20041;-79
2023/01/02 05:05:27;;;;;;;9.40;5.63;;;11.20;99.90;;;;;;5043070;28;20506;-63
2023/01/02 05:07:53;;;;;;;9.35;5.47;;;11.20;99.90;;;;;;5018056;28;20044;-63
2023/01/02 05:10:19;;;;;;;12.43;5.80;;;11.20;99.90;;;;;;5040831;28;20045;-63
2023/01/02 05:12:45;;;;;;;10.25;6.00;;;11.20;99.90;;;;;;5037355;28;20053;-63
2023/01/02 05:15:11;;;;;;;20.58;6.10;;;11.20;99.90;;;;;;5043114;28;20416;-82
2023/01/02 05:17:39;;;;;;;13.32;6.38;;;11.20;99.90;;;;;;5042611;28;20049;-64
2023/01/02 05:20:08;;;;;;;17.58;5.93;;;11.20;99.90;;;;;;5045060;28;20080;-63
2023/01/02 05:25:18;;;;;;;27.50;8.68;;;11.20;99.90;;;;;;5044763;28;20057;-64
2023/01/02 05:27:44;;;;;;;18.95;6.43;;;11.20;99.90;;;;;;5044351;28;20045;-63
2023/01/02 05:30:10;;;;;;;12.65;6.47;;;11.20;99.90;;;;;;5045396;28;20503;-63
2023/01/02 05:32:36;;;;;;;14.45;6.88;;;11.20;99.90;;;;;;5048143;28;20049;-63
2023/01/02 05:35:02;;;;;;;14.93;7.85;;;11.20;99.90;;;;;;5029326;28;20055;-68
2023/01/02 05:37:29;;;;;;;12.75;6.30;;;11.20;99.90;;;;;;5049230;28;20135;-63
2023/01/02 05:39:55;;;;;;;17.00;5.82;;;11.20;99.90;;;;;;5050478;28;20044;-68
2023/01/02 05:42:20;;;;;;;17.13;6.78;;;11.20;99.90;;;;;;5047300;28;20106;-63
2023/01/02 05:44:48;;;;;;;14.82;6.90;;;11.20;99.90;;;;;;5047797;28;20045;-63
2023/01/02 05:47:14;;;;;;;14.88;6.43;;;11.20;99.90;;;;;;5011589;28;20045;-73
2023/01/02 05:49:39;;;;;;;12.85;6.78;;;11.20;99.90;;;;;;5045813;28;20048;-63
2023/01/02 05:52:05;;;;;;;18.27;7.45;;;11.20;99.90;;;;;;5049643;28;20095;-63
2023/01/02 05:54:31;;;;;;;11.57;5.38;;;11.20;99.90;;;;;;5050041;28;20412;-63
2023/01/02 05:56:56;;;;;;;17.30;6.63;;;11.20;99.90;;;;;;5050554;28;20051;-63
2023/01/02 05:59:22;;;;;;;14.27;7.40;;;11.20;99.90;;;;;;5050685;28;20538;-64
2023/01/02 06:01:47;;;;;;;11.90;5.40;;;11.30;99.90;;;;;;5047192;28;20041;-63
2023/01/02 06:04:14;;;;;;;19.10;6.55;;;11.30;99.90;;;;;;5030385;28;20053;-64
2023/01/02 06:06:40;;;;;;;9.45;3.30;;;11.20;99.90;;;;;;5047691;28;20041;-63
2023/01/02 06:09:07;;;;;;;18.30;6.72;;;11.30;99.90;;;;;;5048832;28;20635;-63
2023/01/02 06:11:33;;;;;;;15.30;5.85;;;11.30;99.90;;;;;;5046124;28;20041;-63
2023/01/02 06:13:59;;;;;;;19.05;6.68;;;11.30;99.90;;;;;;5029898;28;20069;-63
2023/01/02 06:16:25;;;;;;;12.85;5.88;;;11.30;99.90;;;;;;5048360;28;20052;-63
2023/01/02 06:18:52;;;;;;;20.73;6.60;;;11.30;99.90;;;;;;5047831;28;20056;-63
2023/01/02 06:21:19;;;;;;;14.90;6.05;;;11.30;99.90;;;;;;5048150;28;20125;-63
2023/01/02 06:23:46;;;;;;;18.65;7.25;;;11.30;99.90;;;;;;5039881;28;20052;-64
2023/01/02 06:26:17;;;;;;;16.67;6.15;;;11.30;99.90;;;;;;5048044;28;20052;-64
2023/01/02 06:28:44;;;;;;;15.55;6.75;;;11.30;99.90;;;;;;5047501;28;20049;-63
2023/01/02 06:31:12;;;;;;;15.50;6.10;;;11.30;99.90;;;;;;5047435;28;20055;-71
2023/01/02 06:33:38;;;;;;;19.83;6.18;;;11.30;99.90;;;;;;5046488;28;20043;-63
2023/01/02 06:36:12;;;;;;;14.13;4.82;;;11.30;99.90;;;;;;5047207;28;20053;-63
2023/01/02 06:38:38;;;;;;;15.35;5.93;;;11.30;99.90;;;;;;5048380;28;20053;-64
2023/01/02 06:41:06;;;;;;;15.52;6.65;;;11.30;99.90;;;;;;5046839;28;20045;-64
2023/01/02 06:43:32;;;;;;;16.33;6.50;;;11.30;99.90;;;;;;5046288;28;20047;-63
2023/01/02 06:46:03;;;;;;;10.55;5.22;;;11.40;99.90;;;;;;5047261;28;20128;-66
2023/01/02 06:48:33;;;;;;;14.93;6.85;;;11.40;99.90;;;;;;5047390;28;20213;-63
2023/01/02 06:51:02;;;;;;;11.15;5.72;;;11.40;99.90;;;;;;5046526;28;20047;-63
2023/01/02 06:53:28;;;;;;;11.52;5.93;;;11.40;99.90;;;;;;5046199;28;20114;-63
2023/01/02 06:55:57;;;;;;;12.93;7.03;;;11.40;99.90;;;;;;5037666;28;20494;-64
2023/01/02 06:58:24;;;;;;;16.40;5.68;;;11.40;99.90;;;;;;5046299;28;20131;-64
2023/01/02 07:00:51;;;;;;;14.20;4.65;;;11.40;99.90;;;;;;5047540;28;20099;-63
2023/01/02 07:03:17;;;;;;;3.50;2.90;;;11.40;99.90;;;;;;5046222;28;20069;-63
2023/01/02 07:05:44;;;;;;;9.23;4.63;;;11.40;99.90;;;;;;5036110;28;20728;-63
2023/01/02 07:08:12;;;;;;;2.78;2.25;;;11.40;99.90;;;;;;5029331;28;20056;-77
2023/01/02 07:10:38;;;;;;;5.45;2.55;;;11.30;99.90;;;;;;5028270;28;20149;-63
2023/01/02 07:13:03;;;;;;;4.40;2.75;;;11.30;99.90;;;;;;5048057;28;20076;-75
2023/01/02 07:15:31;;;;;;;2.50;2.33;;;11.30;99.90;;;;;;5033199;28;20128;-64
2023/01/02 07:17:56;;;;;;;3.03;1.95;;;11.20;99.90;;;;;;5047010;28;20049;-64
2023/01/02 07:20:22;;;;;;;1.85;1.45;;;11.20;99.90;;;;;;5046418;28;20388;-75
2023/01/02 07:22:52;;;;;;;2.58;1.83;;;11.20;99.90;;;;;;5046958;28;20515;-66
2023/01/02 07:25:18;;;;;;;;;;;11.20;99.90;;;;;;5039367;28;20059;-64
2023/01/02 07:27:44;;;;;;;1.20;1.20;;;11.20;99.90;;;;;;5024905;28;19931;-65
2023/01/02 07:30:11;;;;;;;1.75;1.65;;;11.20;99.90;;;;;;5029494;28;20032;-63
2023/01/02 07:32:37;;;;;;;2.80;2.60;;;11.10;99.90;;;;;;5044895;28;20051;-70
2023/01/02 07:35:03;;;;;;;3.92;3.67;;;11.10;99.90;;;;;;5045173;28;20482;-63
2023/01/02 07:37:29;;;;;;;6.53;3.10;;;11.00;99.90;;;;;;5037658;28;20044;-63
2023/01/02 07:39:54;;;;;;;3.90;3.60;;;11.00;99.90;;;;;;5046608;28;20116;-63
2023/01/02 07:42:21;;;;;;;5.70;5.13;;;10.90;99.90;;;;;;5045405;28;20065;-63
2023/01/02 07:44:47;;;;;;;3.42;2.67;;;10.80;99.90;;;;;;5046504;28;20055;-63
2023/01/02 07:47:12;;;;;;;2.10;2.00;;;10.50;99.90;;;;;;5046484;28;20048;-64
2023/01/02 07:49:38;;;;;;;2.30;2.20;;;10.20;99.90;;;;;;5027515;28;20495;-64
2023/01/02 07:52:08;;;;;;;4.53;2.58;;;9.90;99.90;;;;;;5046927;28;20041;-63
2023/01/02 07:54:34;;;;;;;3.30;2.40;;;9.70;99.90;;;;;;5044028;28;20049;-63
2023/01/02 07:56:59;;;;;;;3.38;2.85;;;9.70;99.90;;;;;;5046229;28;20064;-63
2023/01/02 07:59:25;;;;;;;3.47;2.60;;;9.60;99.90;;;;;;5045304;28;20048;-63
2023/01/02 08:01:51;;;;;;;4.20;2.42;;;9.50;99.90;;;;;;5040061;28;20051;-63
2023/01/02 08:04:17;;;;;;;5.80;2.60;;;9.50;99.90;;;;;;5027939;28;20048;-64
2023/01/02 08:06:43;;;;;;;4.72;2.20;;;9.40;99.90;;;;;;5025094;28;20117;-64
2023/01/02 08:09:08;;;;;;;2.25;1.65;;;9.30;99.90;;;;;;5026317;28;20053;-64
2023/01/02 08:11:34;;;;;;;4.45;1.60;;;9.20;99.90;;;;;;5044556;28;20463;-83
2023/01/02 08:14:00;;;;;;;4.15;2.00;;;9.10;99.90;;;;;;5046579;28;20135;-63
2023/01/02 08:16:25;;;;;;;7.53;3.55;;;9.10;99.90;;;;;;5043317;28;20052;-64
2023/01/02 08:18:54;;;;;;;2.92;2.33;;;9.00;99.90;;;;;;5046054;28;20483;-64
2023/01/02 08:21:21;;;;;;;3.17;1.73;;;9.00;99.90;;;;;;5045348;28;20052;-64
2023/01/02 08:23:46;;;;;;;7.97;3.67;;;8.90;99.90;;;;;;5045569;28;20049;-64
2023/01/02 08:26:12;;;;;;;13.20;5.43;;;8.90;99.90;;;;;;5026729;28;20056;-64
2023/01/02 08:28:40;;;;;;;15.13;5.10;;;8.80;99.90;;;;;;5044554;28;20091;-64
2023/01/02 08:31:15;;;;;;;19.52;6.22;;;8.80;99.90;;;;;;5041253;28;20492;-64
2023/01/02 08:33:41;;;;;;;12.43;3.83;;;8.80;99.90;;;;;;5027015;28;20045;-64
2023/01/02 08:36:08;;;;;;;8.10;2.78;;;8.80;99.90;;;;;;5013503;28;20052;-64
2023/01/02 08:38:35;;;;;;;11.80;2.20;;;8.70;99.90;;;;;;5030333;28;20045;-64
2023/01/02 08:41:00;;;;;;;13.25;3.75;;;8.70;99.90;;;;;;5008604;28;20098;-65
2023/01/02 08:43:26;;;;;;;4.55;1.30;;;8.60;99.90;;;;;;5029190;28;20049;-64
2023/01/02 08:45:53;;;;;;;5.07;1.38;;;8.70;99.90;;;;;;5028324;28;20057;-86
2023/01/02 08:48:19;;;;;;;4.10;1.52;;;8.70;99.90;;;;;;5041528;28;20043;-64
2023/01/02 08:50:45;;;;;;;1.67;1.45;;;8.60;99.90;;;;;;5041607;28;20037;-64
2023/01/02 08:53:10;;;;;;;3.22;1.48;;;8.60;99.90;;;;;;5044716;28;20029;-64
2023/01/02 08:55:36;;;;;;;2.10;1.15;;;8.50;99.90;;;;;;5041732;28;20150;-64
2023/01/02 08:58:02;;;;;;;1.95;1.02;;;8.50;99.90;;;;;;5031088;28;20041;-78
2023/01/02 09:00:28;;;;;;;3.03;1.00;;;8.50;99.90;;;;;;5042439;28;20087;-64
2023/01/02 09:02:53;;;;;;;2.10;0.80;;;8.50;99.90;;;;;;5024574;28;20037;-64
2023/01/02 09:05:20;;;;;;;2.70;1.20;;;8.50;99.90;;;;;;5025382;28;20099;-82
2023/01/02 09:07:45;;;;;;;3.92;0.50;;;8.50;99.90;;;;;;5041246;28;20132;-64
2023/01/02 09:10:11;;;;;;;1.55;0.73;;;8.40;99.90;;;;;;5049586;28;20443;-79
2023/01/02 09:12:37;;;;;;;8.88;1.38;;;8.50;99.90;;;;;;5047776;28;20072;-64
2023/01/02 09:15:04;;;;;;;4.32;1.02;;;8.40;99.90;;;;;;5047864;28;20079;-64
2023/01/02 09:17:30;;;;;;;6.30;1.50;;;8.40;99.90;;;;;;5048109;28;20045;-64
2023/01/02 09:19:55;;;;;;;6.38;1.05;;;8.40;99.90;;;;;;5025521;28;20056;-80
2023/01/02 09:22:21;;;;;;;3.70;1.30;;;8.40;99.90;;;;;;5024328;28;20053;-64
2023/01/02 09:24:47;;;;;;;4.13;1.20;;;8.40;99.90;;;;;;5045465;28;20041;-64
2023/01/02 09:27:13;;;;;;;4.25;1.13;;;8.40;99.90;;;;;;5031482;28;20045;-65
2023/01/02 09:29:39;;;;;;;3.08;0.90;;;8.40;99.90;;;;;;5033427;28;20049;-80
2023/01/02 09:32:04;;;;;;;4.63;1.30;;;8.40;99.90;;;;;;5018875;28;20045;-64
2023/01/02 09:34:30;;;;;;;5.47;1.33;;;8.50;99.90;;;;;;5030759;28;20033;-65
2023/01/02 09:36:56;;;;;;;5.97;1.42;;;8.40;99.90;;;;;;5028789;28;20249;-64
2023/01/02 09:39:21;;;;;;;3.97;1.25;;;8.40;99.90;;;;;;5029795;28;20060;-64
2023/01/02 09:41:51;;;;;;;1.95;0.40;;;8.40;99.90;;;;;;5028181;28;20048;-64
2023/01/02 09:44:25;;;;;;;6.28;1.25;;;8.40;99.90;;;;;;5033837;28;20049;-65
2023/01/02 09:47:23;;;;;;;1.48;0.70;;;8.40;99.90;;;;;;5024755;28;20053;-65
2023/01/02 09:49:53;;;;;;;2.97;1.27;;;8.40;99.90;;;;;;5036670;28;20081;-66
2023/01/02 09:52:26;;;;;;;7.18;1.73;;;8.50;99.90;;;;;;5041809;28;20045;-66
2023/01/02 09:54:52;;;;;;;2.80;0.95;;;8.50;99.90;;;;;;5032881;28;20399;-65
2023/01/02 09:57:27;;;;;;;4.20;1.30;;;8.50;99.90;;;;;;5034713;28;20045;-66
2023/01/02 10:00:09;;;;;;;3.85;1.02;;;8.60;99.90;;;;;;5028355;28;20499;-82
2023/01/02 10:03:11;;;;;;;5.20;1.50;;;8.50;99.90;;;;;;5030717;28;20056;-73
2023/01/02 10:05:39;;;;;;;3.15;0.90;;;8.60;99.90;;;;;;5030737;28;20080;-65
2023/01/02 10:08:45;;;;;;;3.40;0.80;;;8.60;99.90;;;;;;5030856;28;20108;-66
2023/01/02 10:11:26;;;;;;;1.30;0.55;;;8.60;99.90;;;;;;5014047;28;20045;-66
2023/01/02 10:14:21;;;;;;;4.68;0.88;;;8.50;99.90;;;;;;5028790;28;20119;-66
2023/01/02 10:16:54;;;;;;;3.90;0.75;;;8.60;99.90;;;;;;5040811;28;20041;-66
2023/01/02 10:19:58;;;;;;;2.63;0.63;;;8.60;99.90;;;;;;5044320;28;20053;-66
2023/01/02 10:23:07;;;;;;;1.80;0.90;;;8.70;99.90;;;;;;5021580;28;20791;-66
2023/01/02 10:25:38;;;;;;;0.43;0.38;;;8.70;99.90;;;;;;4942356;28;20458;-66
2023/01/02 10:28:07;;;;;;;1.48;0.20;;;8.70;99.90;;;;;;4944836;28;20394;-66
2023/01/02 10:30:40;;;;;;;3.38;1.10;;;8.70;99.90;;;;;;4977948;28;20061;-66
2023/01/02 10:33:13;;;;;;;2.47;0.82;;;8.80;99.90;;;;;;5033651;28;20065;-66
2023/01/02 10:35:52;;;;;;;5.55;0.90;;;8.80;99.90;;;;;;5032072;28;20072;-78
2023/01/02 10:38:19;;;;;;;2.72;0.65;;;8.80;99.90;;;;;;5018463;28;20461;-66
2023/01/02 10:40:47;;;;;;;5.20;1.10;;;8.90;99.90;;;;;;5039917;28;20048;-76
2023/01/02 10:43:14;;;;;;;1.63;0.82;;;8.90;99.90;;;;;;5037463;28;20521;-66
2023/01/02 10:45:41;;;;;;;1.98;0.80;;;8.90;99.90;;;;;;5043357;28;20033;-68
2023/01/02 10:48:10;;;;;;;2.35;0.95;;;8.90;99.90;;;;;;5044731;28;20391;-66
2023/01/02 10:51:00;;;;;;;1.80;0.90;;;8.90;99.90;;;;;;5025757;28;20053;-66
2023/01/02 10:53:31;;;;;;;4.57;0.80;;;8.90;99.90;;;;;;5046223;28;20406;-66
2023/01/02 10:56:10;;;;;;;0.98;0.50;;;8.90;99.90;;;;;;5036699;28;20149;-66
2023/01/02 10:58:44;;;;;;;1.00;0.60;;;8.90;99.90;;;;;;5018580;28;20141;-72
2023/01/02 11:01:17;;;;;;;2.25;1.08;;;8.90;99.90;;;;;;5038462;28;20101;-71
2023/01/02 11:04:08;;;;;;;3.90;0.90;;;8.90;99.90;;;;;;5046025;28;20456;-65
2023/01/02 11:06:49;;;;;;;3.80;1.10;;;8.80;99.90;;;;;;5049043;28;20049;-65
2023/01/02 11:09:27;;;;;;;3.47;0.73;;;8.80;99.90;;;;;;5037291;28;20053;-67
2023/01/02 11:12:19;;;;;;;1.67;0.70;;;8.80;99.90;;;;;;5046548;28;20125;-66
2023/01/02 11:14:44;;;;;;;2.88;1.38;;;8.80;99.90;;;;;;5036689;28;20148;-66
2023/01/02 11:17:15;;;;;;;1.55;0.65;;;8.80;99.90;;;;;;5042846;28;20695;-66
2023/01/02 11:19:45;;;;;;;4.07;1.00;;;8.80;99.90;;;;;;5044774;28;20427;-81
2023/01/02 11:22:14;;;;;;;1.25;0.70;;;8.80;99.90;;;;;;5044415;28;20068;-66
2023/01/02 11:25:00;;;;;;;1.55;0.70;;;8.90;99.90;;;;;;5044984;28;20045;-66
2023/01/02 11:27:35;;;;;;;2.63;0.77;;;8.90;99.90;;;;;;5044672;28;20048;-66
2023/01/02 11:30:02;;;;;;;2.17;0.90;;;8.90;99.90;;;;;;5024873;28;20033;-66
2023/01/02 11:32:39;;;;;;;1.75;0.75;;;8.90;99.90;;;;;;5045388;28;20410;-65
2023/01/02 11:35:25;;;;;;;2.83;0.68;;;9.00;99.90;;;;;;5042812;28;20119;-66
2023/01/02 11:37:52;;;;;;;0.60;0.60;;;9.00;99.90;;;;;;5044286;28;20075;-65
2023/01/02 11:40:27;;;;;;;1.30;0.60;;;9.00;99.90;;;;;;5033607;28;20495;-67
2023/01/02 11:45:44;;;;;;;2.92;0.98;;;9.20;99.90;;;;;;5041878;28;20040;-66
2023/01/02 11:48:23;;;;;;;2.30;1.00;;;9.20;99.90;;;;;;5043234;28;20076;-66
2023/01/02 11:50:49;;;;;;;2.47;1.00;;;9.20;99.90;;;;;;5038957;28;20448;-66
2023/01/02 11:53:33;;;;;;;3.13;1.08;;;9.20;99.90;;;;;;5023912;28;20491;-65
2023/01/02 11:56:12;;;;;;;2.08;0.73;;;9.10;99.90;;;;;;5041700;28;20045;-66
2023/01/02 11:58:46;;;;;;;4.38;1.67;;;9.00;99.90;;;;;;5042104;28;20051;-66
2023/01/02 12:01:12;;;;;;;5.35;1.45;;;9.10;99.90;;;;;;5039372;28;20353;-66
2023/01/02 12:03:38;;;;;;;3.45;1.30;;;9.10;99.90;;;;;;5044820;28;20550;-65
2023/01/02 12:06:33;;;;;;;3.10;1.10;;;9.10;99.90;;;;;;5041334;28;20524;-65
2023/01/02 12:09:12;;;;;;;2.60;0.85;;;9.10;99.90;;;;;;4971868;28;20084;-65
2023/01/02 12:11:51;;;;;;;8.23;1.25;;;9.00;99.90;;;;;;5017420;28;20102;-65
2023/01/02 12:14:41;;;;;;;5.40;1.15;;;9.00;99.90;;;;;;5040270;28;20250;-65
2023/01/02 12:17:40;;;;;;;1.63;1.05;;;9.10;99.90;;;;;;5044180;28;20044;-65
2023/01/02 12:20:06;;;;;;;3.88;1.65;;;9.10;99.90;;;;;;5044273;28;20072;-65
2023/01/02 12:23:11;;;;;;;4.88;1.30;;;9.10;99.90;;;;;;5044687;28;20399;-65
2023/01/02 12:26:07;;;;;;;6.40;1.08;;;9.10;99.90;;;;;;5027056;28;20045;-80
2023/01/02 12:28:48;;;;;;;4.43;1.08;;;9.30;99.90;;;;;;5041442;28;20123;-65
2023/01/02 12:31:16;;;;;;;;;;;9.40;99.90;;;;;;5041405;28;20457;-65
2023/01/02 12:34:03;;;;;;;5.65;1.23;;;9.50;99.90;;;;;;5021151;28;19925;-65
2023/01/02 12:36:52;;;;;;;3.58;1.50;;;9.50;99.90;;;;;;5026077;28;20041;-65
2023/01/02 12:40:08;;;;;;;3.83;0.75;;;9.60;99.90;;;;;;5040124;28;20052;-65
2023/01/02 12:42:43;;;;;;;3.15;1.10;;;9.60;99.90;;;;;;5005737;28;20072;-65
2023/01/02 12:45:32;;;;;;;3.45;0.75;;;9.60;99.90;;;;;;5025418;28;20053;-70
2023/01/02 12:48:20;;;;;;;4.47;1.30;;;9.50;99.90;;;;;;5039023;28;20090;-83
2023/01/02 12:50:52;;;;;;;7.20;0.88;;;9.40;99.90;;;;;;5042446;28;20136;-65
2023/01/02 12:54:00;;;;;;;7.47;0.85;;;9.30;99.90;;;;;;5043871;28;20499;-66
2023/01/02 12:56:37;;;;;;;2.22;0.73;;;9.30;99.90;;;;;;5028637;28;20063;-81
2023/01/02 12:59:35;;;;;;;3.72;0.68;;;9.30;99.90;;;;;;5032478;28;20045;-65
2023/01/02 13:02:30;;;;;;;5.78;1.02;;;9.20;99.90;;;;;;4988991;28;20088;-69
2023/01/02 13:05:13;;;;;;;7.47;1.27;;;9.20;99.90;;;;;;5044977;28;20047;-65
2023/01/02 13:08:34;;;;;;;6.13;0.75;;;9.20;99.90;;;;;;5039522;28;20098;-66
2023/01/02 13:11:04;;;;;;;9.32;0.73;;;9.20;99.90;;;;;;4956193;28;20062;-70
2023/01/02 13:13:34;;;;;;;14.68;1.50;;;9.10;99.90;;;;;;5024096;28;20056;-65
2023/01/02 13:16:08;;;;;;;7.30;1.52;;;9.10;99.90;;;;;;5023615;28;20029;-68